Time;durP1;ratioP1;P1;durP2;ratioP2;P2;SDS_P1;SDS_P2;PMS_P1;PMS_P2;Temp;Humidity;BMP_temperature;BMP_pressure;BME280_temperature;BME280_humidity;BME280_pressure;Samples;Min_cycle;Max_cycle;Signal;HPM_P1;HPM_P2
2022/03/28 00:00:09;;;;;;;9.10;4.70;;;;;;;4.81;45.06;100991.37;130776;1265;112232;-81
2022/03/28 00:03:32;;;;;;;12.80;5.30;;;;;;;4.82;44.99;100991.64;130694;1265;113908;-82
2022/03/28 00:06:35;;;;;;;8.80;4.60;;;;;;;4.83;45.04;100987.38;130812;1265;97949;-78
2022/03/28 00:09:38;;;;;;;9.90;4.70;;;;;;;4.84;44.99;100986.23;130664;1265;99024;-78
2022/03/28 00:12:40;;;;;;;10.50;4.70;;;;;;;4.86;44.86;100979.05;130628;1265;99155;-78
2022/03/28 00:15:43;;;;;;;12.40;5.40;;;;;;;4.86;44.97;100976.94;130464;1265;97945;-78
2022/03/28 00:18:46;;;;;;;10.70;5.10;;;;;;;4.85;44.88;100969.59;130587;1265;98760;-79
2022/03/28 00:21:48;;;;;;;10.60;4.60;;;;;;;4.85;44.98;100964.83;130435;1265;344538;-75
2022/03/28 00:24:51;;;;;;;10.90;4.90;;;;;;;4.86;44.92;100960.91;130607;1265;99231;-76
2022/03/28 00:27:54;;;;;;;10.60;4.90;;;;;;;4.86;45.08;100954.95;130499;1265;108667;-75
2022/03/28 00:30:57;;;;;;;8.50;4.80;;;;;;;4.84;45.10;100951.18;130536;1265;98490;-80
2022/03/28 00:33:59;;;;;;;9.40;5.00;;;;;;;4.84;45.01;100944.81;130479;1265;99062;-79
2022/03/28 00:37:02;;;;;;;10.70;4.90;;;;;;;4.83;44.98;100940.84;130515;1265;97969;-78
2022/03/28 00:40:07;;;;;;;10.20;4.80;;;;;;;4.83;45.05;100937.14;130520;1265;99083;-79
2022/03/28 00:43:10;;;;;;;9.50;5.00;;;;;;;4.82;44.91;100935.40;130736;1265;108614;-77
2022/03/28 00:46:13;;;;;;;9.60;5.00;;;;;;;4.82;45.07;100927.14;130669;1265;108689;-77
2022/03/28 00:49:16;;;;;;;11.90;5.10;;;;;;;4.81;45.08;100924.20;130498;1265;98074;-77
2022/03/28 00:52:19;;;;;;;10.80;4.70;;;;;;;4.81;45.04;100920.54;130547;1265;108681;-76
2022/03/28 00:55:21;;;;;;;11.40;5.00;;;;;;;4.80;44.98;100918.13;130469;1265;98400;-76
2022/03/28 00:58:24;;;;;;;11.30;5.30;;;;;;;4.78;45.06;100911.40;130522;1265;99165;-77
2022/03/28 01:01:27;;;;;;;11.40;5.40;;;;;;;4.76;45.11;100905.49;130510;1265;98045;-76
2022/03/28 01:04:30;;;;;;;11.70;5.00;;;;;;;4.75;45.12;100899.10;130718;1265;99151;-78
2022/03/28 01:07:33;;;;;;;13.00;5.80;;;;;;;4.74;45.20;100894.70;130710;1265;99176;-77
2022/03/28 01:10:37;;;;;;;11.90;5.70;;;;;;;4.72;45.11;100887.61;130596;1265;98398;-78
2022/03/28 01:13:41;;;;;;;10.30;5.20;;;;;;;4.70;45.24;100881.88;130596;1265;108837;-79
2022/03/28 01:20:09;;;;;;;10.20;5.30;;;;;;;4.67;45.33;100872.05;130513;1268;108806;-80
2022/03/28 01:23:12;;;;;;;14.10;5.90;;;;;;;4.66;45.24;100872.16;130744;1265;108414;-78
2022/03/28 01:26:15;;;;;;;13.10;5.70;;;;;;;4.63;45.39;100862.27;130669;1265;99159;-78
2022/03/28 01:29:18;;;;;;;10.70;5.50;;;;;;;4.61;45.30;100857.65;130764;1265;108554;-76
2022/03/28 01:32:21;;;;;;;11.40;5.70;;;;;;;4.58;45.37;100850.61;130675;1265;98725;-76
2022/03/28 01:35:28;;;;;;;10.10;5.60;;;;;;;4.56;45.35;100842.11;130540;1265;99165;-76
2022/03/28 01:38:31;;;;;;;13.60;5.70;;;;;;;4.54;45.35;100834.68;130718;1265;108809;-77
2022/03/28 01:41:34;;;;;;;14.60;5.80;;;;;;;4.51;45.57;100834.69;130650;1265;98619;-76
2022/03/28 01:44:37;;;;;;;11.40;5.50;;;;;;;4.50;45.51;100825.77;130697;1265;99828;-77
2022/03/28 01:47:40;;;;;;;12.60;5.50;;;;;;;4.49;45.63;100819.88;130700;1264;98277;-76
2022/03/28 01:50:43;;;;;;;10.70;5.10;;;;;;;4.46;45.55;100819.33;130666;1265;99232;-77
2022/03/28 01:53:45;;;;;;;9.60;5.30;;;;;;;4.41;45.73;100815.79;130641;1265;98032;-72
2022/03/28 01:56:48;;;;;;;11.30;5.60;;;;;;;4.37;45.75;100814.81;130809;1265;99134;-80
2022/03/28 01:59:51;;;;;;;11.60;5.70;;;;;;;4.34;45.90;100817.11;130652;1265;98758;-80
2022/03/28 02:02:54;;;;;;;10.20;5.30;;;;;;;4.29;45.81;100807.02;130701;1265;98508;-73
2022/03/28 02:05:57;;;;;;;12.30;5.60;;;;;;;4.30;45.81;100807.89;130697;1265;98073;-74
2022/03/28 02:08:59;;;;;;;10.40;5.20;;;;;;;4.28;45.91;100805.70;130672;1265;97965;-75
2022/03/28 02:12:02;;;;;;;9.60;5.40;;;;;;;4.26;45.81;100801.95;130670;1265;98715;-74
2022/03/28 02:15:10;;;;;;;12.70;5.90;;;;;;;4.23;45.93;100802.66;130614;1265;99192;-74
2022/03/28 02:18:12;;;;;;;11.80;5.90;;;;;;;4.20;46.21;100802.02;130809;1265;107643;-73
2022/03/28 02:21:15;;;;;;;10.40;5.50;;;;;;;4.16;46.06;100802.42;130647;1265;98422;-74
2022/03/28 02:24:18;;;;;;;10.70;6.30;;;;;;;4.12;46.16;100796.69;130657;1265;99165;-74
2022/03/28 02:27:20;;;;;;;12.20;5.60;;;;;;;4.10;46.24;100791.88;130705;1264;99139;-73
2022/03/28 02:30:24;;;;;;;11.80;5.50;;;;;;;4.06;46.23;100790.38;130692;1265;98398;-73
2022/03/28 02:33:27;;;;;;;10.70;5.70;;;;;;;4.01;46.14;100788.73;130637;1264;99236;-75
2022/03/28 02:36:29;;;;;;;12.30;6.30;;;;;;;3.98;46.32;100787.05;130670;1265;98040;-76
2022/03/28 02:39:32;;;;;;;11.20;5.70;;;;;;;3.96;46.41;100787.52;130617;1265;99159;-74
2022/03/28 02:42:35;;;;;;;11.90;5.40;;;;;;;3.93;46.45;100782.92;130629;1265;99145;-74
2022/03/28 02:45:38;;;;;;;11.90;6.00;;;;;;;3.91;46.61;100780.92;130710;1265;97957;-77
2022/03/28 02:48:40;;;;;;;14.70;6.20;;;;;;;3.89;46.55;100779.32;130844;1264;99210;-73
2022/03/28 02:51:43;;;;;;;12.40;6.40;;;;;;;3.87;46.57;100777.17;130682;1265;97955;-74
2022/03/28 02:54:46;;;;;;;12.40;5.90;;;;;;;3.86;46.72;100772.63;130705;1265;98781;-73
2022/03/28 02:57:49;;;;;;;10.60;5.60;;;;;;;3.84;46.69;100768.05;130666;1265;99175;-73
2022/03/28 03:00:51;;;;;;;11.90;6.00;;;;;;;3.83;46.75;100769.67;130697;1265;98221;-73
2022/03/28 03:03:54;;;;;;;12.50;6.00;;;;;;;3.82;46.94;100769.90;130780;1265;98697;-73
2022/03/28 03:06:57;;;;;;;10.80;5.90;;;;;;;3.82;46.94;100767.60;130677;1265;97975;-75
2022/03/28 03:10:00;;;;;;;11.80;6.40;;;;;;;3.82;47.00;100769.58;130545;1265;98747;-75
2022/03/28 03:13:02;;;;;;;12.30;6.00;;;;;;;3.79;47.00;100762.54;130606;1265;98478;-75
2022/03/28 03:16:06;;;;;;;10.90;6.30;;;;;;;3.75;47.08;100757.32;130515;1265;98029;-74
2022/03/28 03:19:09;;;;;;;12.90;6.70;;;;;;;3.75;47.13;100755.70;130487;1264;98023;-75
2022/03/28 03:22:14;;;;;;;14.50;7.20;;;;;;;3.74;47.30;100754.41;130490;1265;99149;-74
2022/03/28 03:25:16;;;;;;;11.10;6.10;;;;;;;3.73;47.31;100756.71;130528;1265;97974;-74
2022/03/28 03:28:20;;;;;;;12.90;6.70;;;;;;;3.75;47.41;100752.39;130508;1265;98067;-74
2022/03/28 03:31:22;;;;;;;13.40;6.30;;;;;;;3.76;47.23;100756.23;130500;1265;99155;-74
2022/03/28 03:34:25;;;;;;;12.30;6.40;;;;;;;3.74;47.43;100750.89;130524;1265;99133;-75
2022/03/28 03:37:28;;;;;;;11.90;6.40;;;;;;;3.71;47.64;100744.90;130492;1265;97972;-74
2022/03/28 03:40:31;;;;;;;14.10;7.00;;;;;;;3.69;47.56;100740.96;130509;1265;98489;-72
2022/03/28 03:43:34;;;;;;;14.00;6.60;;;;;;;3.67;47.62;100731.79;130496;1265;97993;-74
2022/03/28 03:46:37;;;;;;;15.00;7.00;;;;;;;3.67;47.59;100732.00;130524;1265;98477;-74
2022/03/28 03:49:40;;;;;;;13.50;7.00;;;;;;;3.67;47.75;100723.67;130592;1265;99200;-73
2022/03/28 03:52:42;;;;;;;13.50;6.90;;;;;;;3.69;47.77;100726.36;130495;1265;98079;-73
2022/03/28 03:55:45;;;;;;;15.70;7.60;;;;;;;3.70;47.79;100729.13;130540;1265;98026;-74
2022/03/28 03:58:48;;;;;;;14.60;7.80;;;;;;;3.71;47.72;100728.05;130479;1265;98038;-75
2022/03/28 04:01:51;;;;;;;15.10;7.80;;;;;;;3.69;47.92;100729.52;130528;1265;99031;-74
2022/03/28 04:04:54;;;;;;;13.40;7.30;;;;;;;3.69;47.79;100728.30;130648;1265;97979;-73
2022/03/28 04:07:57;;;;;;;14.90;7.60;;;;;;;3.69;48.04;100724.60;130627;1265;99168;-74
2022/03/28 04:11:00;;;;;;;16.80;8.10;;;;;;;3.69;47.87;100721.28;130544;1265;97965;-74
2022/03/28 04:14:03;;;;;;;13.40;7.90;;;;;;;3.67;48.05;100715.23;130505;1265;99139;-73
2022/03/28 04:17:06;;;;;;;14.30;7.70;;;;;;;3.66;48.07;100705.46;130490;1265;99177;-73
2022/03/28 04:20:13;;;;;;;15.90;7.80;;;;;;;3.64;47.93;100701.39;130501;1265;98385;-73
2022/03/28 04:23:16;;;;;;;16.30;8.50;;;;;;;3.62;48.02;100694.96;130500;1265;97963;-73
2022/03/28 04:26:19;;;;;;;18.10;8.20;;;;;;;3.63;48.13;100696.71;130493;1265;99175;-73
2022/03/28 04:29:22;;;;;;;16.50;8.60;;;;;;;3.64;48.29;100699.27;130550;1265;98529;-74
2022/03/28 04:32:25;;;;;;;15.60;8.40;;;;;;;3.66;48.21;100691.03;130534;1265;98737;-74
2022/03/28 04:35:28;;;;;;;19.20;8.40;;;;;;;3.68;48.33;100682.28;130486;1265;98028;-74
2022/03/28 04:38:30;;;;;;;17.80;9.20;;;;;;;3.72;48.53;100678.71;130525;1265;99141;-73
2022/03/28 04:41:33;;;;;;;18.30;8.30;;;;;;;3.77;48.65;100680.13;130491;1265;97993;-75
2022/03/28 04:44:36;;;;;;;17.50;8.50;;;;;;;3.83;48.49;100680.43;130528;1265;99032;-74
2022/03/28 04:47:38;;;;;;;16.10;7.90;;;;;;;3.90;48.65;100673.84;130585;1264;99139;-74
2022/03/28 04:50:41;;;;;;;14.40;7.60;;;;;;;3.97;48.76;100671.83;130608;1265;97975;-74
2022/03/28 04:53:44;;;;;;;15.60;7.70;;;;;;;4.05;48.81;100668.66;130497;1264;99143;-74
2022/03/28 04:56:47;;;;;;;15.90;8.00;;;;;;;4.14;48.93;100667.65;130701;1265;97976;-74
2022/03/28 04:59:49;;;;;;;13.20;7.40;;;;;;;4.25;49.18;100656.38;130649;1265;97945;-72
2022/03/28 05:02:52;;;;;;;16.70;7.70;;;;;;;4.38;49.18;100654.45;130644;1265;99268;-73
2022/03/28 05:05:55;;;;;;;16.90;7.60;;;;;;;4.49;49.14;100654.95;130572;1265;98297;-72
2022/03/28 05:08:57;;;;;;;16.00;8.20;;;;;;;4.59;49.24;100654.64;130569;1265;98059;-71
2022/03/28 05:12:00;;;;;;;17.50;8.10;;;;;;;4.69;49.37;100656.06;130750;1265;97959;-72
2022/03/28 05:15:05;;;;;;;14.00;8.20;;;;;;;4.83;49.30;100654.23;130477;1265;98408;-72
2022/03/28 05:18:08;;;;;;;15.40;8.30;;;;;;;4.95;49.27;100655.16;130581;1265;97949;-73
2022/03/28 05:21:10;;;;;;;13.80;8.20;;;;;;;5.05;49.39;100652.33;130497;1265;99159;-72
2022/03/28 05:24:13;;;;;;;16.30;7.80;;;;;;;5.13;49.55;100652.27;130658;1265;97998;-71
2022/03/28 05:27:16;;;;;;;12.60;8.10;;;;;;;5.23;49.65;100656.05;130521;1265;99139;-72
2022/03/28 05:30:18;;;;;;;12.70;7.50;;;;;;;5.31;49.65;100658.42;130479;1265;98757;-73
2022/03/28 05:33:22;;;;;;;14.60;7.70;;;;;;;5.40;49.63;100656.21;130495;1265;98033;-73
2022/03/28 05:36:25;;;;;;;13.00;7.80;;;;;;;5.49;49.81;100654.69;130579;1265;99136;-72
2022/03/28 05:39:28;;;;;;;15.40;7.60;;;;;;;5.58;49.73;100648.92;130438;1265;99102;-72
2022/03/28 05:42:32;;;;;;;14.70;8.30;;;;;;;5.67;49.98;100646.30;130495;1265;98807;-73
2022/03/28 05:45:36;;;;;;;13.20;8.00;;;;;;;5.78;50.08;100644.45;130510;1265;99031;-71
2022/03/28 05:48:39;;;;;;;14.60;8.00;;;;;;;5.90;50.20;100644.27;130550;1265;97980;-72
2022/03/28 05:51:41;;;;;;;14.50;8.30;;;;;;;6.01;50.33;100639.14;130573;1265;99143;-73
2022/03/28 05:54:44;;;;;;;14.70;8.00;;;;;;;6.12;50.53;100633.15;130492;1265;98444;-73
2022/03/28 05:57:47;;;;;;;15.70;7.90;;;;;;;6.24;50.70;100635.45;130529;1265;99152;-72
2022/03/28 06:00:50;;;;;;;13.20;7.70;;;;;;;6.36;50.86;100632.07;130670;1265;99169;-72
2022/03/28 06:03:52;;;;;;;12.90;8.10;;;;;;;6.48;50.73;100626.55;130675;1265;98045;-72
2022/03/28 06:06:55;;;;;;;12.30;7.10;;;;;;;6.60;51.08;100630.74;130663;1265;98604;-72
2022/03/28 06:09:57;;;;;;;14.60;8.00;;;;;;;6.73;50.95;100629.09;130647;1265;99148;-72
2022/03/28 06:13:00;;;;;;;13.10;7.30;;;;;;;6.83;50.87;100624.89;130567;1265;97967;-72
2022/03/28 06:16:05;;;;;;;13.60;7.30;;;;;;;6.96;51.17;100618.81;130488;1265;112682;-72
2022/03/28 06:19:07;;;;;;;13.50;7.80;;;;;;;7.10;51.79;100618.55;130515;1265;112449;-73
2022/03/28 06:22:10;;;;;;;12.30;7.80;;;;;;;7.28;52.27;100616.55;130487;1265;99142;-72
2022/03/28 06:25:12;;;;;;;13.90;7.70;;;;;;;7.43;52.02;100615.21;130505;1265;98027;-72
2022/03/28 06:28:15;;;;;;;12.20;7.40;;;;;;;7.58;52.43;100612.61;130654;1265;99152;-74
2022/03/28 06:31:18;;;;;;;13.80;7.50;;;;;;;7.70;52.21;100605.19;130538;1265;98031;-72
2022/03/28 06:34:21;;;;;;;11.40;7.20;;;;;;;7.85;52.70;100601.03;130642;1265;98763;-72
2022/03/28 06:37:24;;;;;;;15.00;8.20;;;;;;;7.98;52.27;100593.17;130516;1265;97981;-72
2022/03/28 06:40:27;;;;;;;12.50;7.60;;;;;;;8.11;52.93;100586.80;130487;1265;99146;-73
2022/03/28 06:43:30;;;;;;;12.00;7.30;;;;;;;8.23;53.28;100579.70;130471;1265;98796;-73
2022/03/28 06:46:33;;;;;;;13.80;7.30;;;;;;;8.36;52.44;100575.44;130649;1265;98381;-73
2022/03/28 06:49:35;;;;;;;12.10;7.40;;;;;;;8.47;52.68;100573.16;130629;1265;98740;-73
2022/03/28 06:52:38;;;;;;;12.00;7.30;;;;;;;8.57;52.92;100570.70;130661;1265;98179;-73
2022/03/28 06:55:40;;;;;;;12.50;7.00;;;;;;;8.68;52.73;100567.42;130456;1265;108747;-72
2022/03/28 06:58:43;;;;;;;14.10;7.00;;;;;;;8.80;52.98;100568.02;130570;1265;98477;-72
2022/03/28 07:01:46;;;;;;;13.00;7.10;;;;;;;8.93;53.39;100566.30;130504;1265;99177;-72
2022/03/28 07:04:48;;;;;;;11.80;6.90;;;;;;;9.06;52.87;100569.48;130685;1265;98064;-75
2022/03/28 07:07:51;;;;;;;11.30;7.30;;;;;;;9.17;53.12;100568.78;130553;1265;98402;-74
2022/03/28 07:10:54;;;;;;;13.40;7.20;;;;;;;9.30;53.36;100567.44;130567;1265;98046;-73
2022/03/28 07:13:57;;;;;;;12.70;7.60;;;;;;;9.46;53.57;100563.06;130568;1265;98051;-71
2022/03/28 07:17:00;;;;;;;12.70;7.50;;;;;;;9.58;53.37;100557.85;130573;1265;98731;-71
2022/03/28 07:20:03;;;;;;;12.20;6.30;;;;;;;9.69;53.41;100556.11;130572;1265;99143;-71
2022/03/28 07:23:06;;;;;;;13.50;6.80;;;;;;;9.79;53.05;100551.35;130499;1265;97970;-74
2022/03/28 07:26:09;;;;;;;13.30;7.40;;;;;;;9.89;53.84;100550.80;130442;1265;98664;-73
2022/03/28 07:29:12;;;;;;;12.30;7.30;;;;;;;10.03;54.52;100548.55;130544;1265;99156;-73
2022/03/28 07:32:15;;;;;;;14.50;7.20;;;;;;;10.16;53.96;100536.70;130466;1265;97962;-73
2022/03/28 07:35:19;;;;;;;12.20;6.80;;;;;;;10.26;54.24;100543.67;130514;1265;99180;-73
2022/03/28 07:38:22;;;;;;;13.10;7.60;;;;;;;10.35;53.94;100537.14;130567;1265;99186;-73
2022/03/28 07:41:24;;;;;;;13.80;7.40;;;;;;;10.42;53.99;100533.27;130530;1265;97958;-74
2022/03/28 07:44:27;;;;;;;13.70;7.80;;;;;;;10.50;54.03;100525.23;130536;1265;98486;-73
2022/03/28 07:47:30;;;;;;;13.10;7.50;;;;;;;10.60;53.96;100525.17;130541;1265;99028;-73
2022/03/28 07:50:34;;;;;;;12.80;7.70;;;;;;;10.71;53.94;100523.91;130493;1265;98047;-73
2022/03/28 07:53:38;;;;;;;13.30;7.20;;;;;;;10.81;53.81;100513.91;130472;1265;99095;-73
2022/03/28 07:56:41;;;;;;;13.30;7.70;;;;;;;10.91;53.61;100515.02;130673;1265;108348;-73
2022/03/28 07:59:46;;;;;;;11.70;7.60;;;;;;;11.01;53.61;100507.31;130532;1265;98098;-73
2022/03/28 08:02:48;;;;;;;13.80;7.30;;;;;;;11.07;53.61;100497.10;130592;1265;108710;-73
2022/03/28 08:05:53;;;;;;;13.40;7.20;;;;;;;11.15;53.39;100498.43;130493;1265;98287;-73
2022/03/28 08:08:56;;;;;;;12.00;7.10;;;;;;;11.21;53.46;100493.98;130496;1265;108663;-73
2022/03/28 08:11:59;;;;;;;13.60;7.50;;;;;;;11.27;53.34;100496.91;130621;1265;107419;-73
2022/03/28 08:15:03;;;;;;;11.70;7.20;;;;;;;11.33;53.41;100486.38;130513;1265;108706;-74
2022/03/28 08:18:06;;;;;;;13.30;7.10;;;;;;;11.41;52.92;100481.13;130569;1265;108756;-73
2022/03/28 08:21:09;;;;;;;10.70;7.00;;;;;;;11.51;52.92;100479.10;130573;1265;108633;-73
2022/03/28 08:24:12;;;;;;;11.00;6.60;;;;;;;11.59;52.88;100474.66;130589;1265;108690;-73
2022/03/28 08:27:15;;;;;;;11.70;6.60;;;;;;;11.69;52.90;100466.89;130511;1265;99688;-73
2022/03/28 08:30:18;;;;;;;11.70;7.00;;;;;;;11.80;53.00;100465.42;130697;1265;98034;-73
2022/03/28 08:33:21;;;;;;;11.80;6.90;;;;;;;11.89;52.99;100460.31;130672;1264;107322;-73
2022/03/28 08:36:23;;;;;;;13.60;6.70;;;;;;;11.97;52.79;100451.22;130686;1265;99241;-71
2022/03/28 08:39:26;;;;;;;10.70;6.90;;;;;;;12.06;52.77;100449.64;130628;1265;98744;-73
2022/03/28 08:42:29;;;;;;;13.40;7.00;;;;;;;12.14;52.75;100448.08;130591;1265;98033;-72
2022/03/28 08:45:32;;;;;;;12.40;6.80;;;;;;;12.20;52.40;100443.75;130492;1265;98699;-74
2022/03/28 08:48:35;;;;;;;11.50;6.50;;;;;;;12.29;52.30;100440.92;130489;1265;98042;-72
2022/03/28 08:51:38;;;;;;;12.50;6.60;;;;;;;12.37;52.47;100435.61;130621;1265;98021;-72
2022/03/28 08:54:41;;;;;;;10.50;6.60;;;;;;;12.47;52.24;100435.80;130587;1265;99111;-72
2022/03/28 08:57:43;;;;;;;9.60;5.80;;;;;;;12.57;52.43;100430.08;130512;1265;97981;-71
2022/03/28 09:00:46;;;;;;;10.70;6.40;;;;;;;12.67;52.31;100423.52;130633;1265;99159;-72
2022/03/28 09:03:50;;;;;;;10.30;6.00;;;;;;;12.77;52.38;100414.98;130533;1265;97969;-72
2022/03/28 09:06:52;;;;;;;11.30;5.50;;;;;;;12.87;52.43;100408.65;130489;1265;97961;-72
2022/03/28 09:09:59;;;;;;;14.30;5.00;;;;;;;12.97;52.05;100404.20;130717;1265;97971;-72
2022/03/28 09:13:05;;;;;;;9.00;4.80;;;;;;;13.07;51.50;100398.93;130694;1265;98745;-71
2022/03/28 09:16:08;;;;;;;9.50;4.80;;;;;;;13.22;50.90;100399.44;130656;1265;99076;-72
2022/03/28 09:19:12;;;;;;;8.30;4.10;;;;;;;13.29;51.26;100388.61;130496;1265;98054;-71
2022/03/28 09:22:16;;;;;;;6.40;4.30;;;;;;;13.36;51.27;100380.95;130711;1264;97967;-72
2022/03/28 09:25:19;;;;;;;7.80;4.40;;;;;;;13.42;51.23;100377.98;130526;1265;97956;-72
2022/03/28 09:28:25;;;;;;;9.40;4.10;;;;;;;13.51;51.33;100372.30;130593;1264;99145;-72
2022/03/28 09:31:30;;;;;;;7.70;4.10;;;;;;;13.61;51.17;100370.54;130510;1265;97966;-72
2022/03/28 09:34:33;;;;;;;9.60;4.50;;;;;;;13.69;50.57;100368.58;130539;1265;98686;-72
2022/03/28 09:37:58;;;;;;;6.60;3.40;;;;;;;13.79;50.65;100359.80;130465;1265;98074;-73
2022/03/28 09:41:01;;;;;;;8.30;4.00;;;;;;;13.90;49.91;100355.89;130519;1265;99194;-72
2022/03/28 09:44:04;;;;;;;6.80;3.90;;;;;;;13.96;50.14;100352.92;130495;1265;97962;-72
2022/03/28 09:47:10;;;;;;;5.80;3.50;;;;;;;13.98;48.90;100343.32;130480;1265;99127;-72
2022/03/28 09:50:13;;;;;;;5.90;3.70;;;;;;;14.00;48.45;100337.15;130604;1265;97965;-73
2022/03/28 09:53:19;;;;;;;5.90;3.80;;;;;;;14.06;49.31;100329.31;130688;1265;98511;-73
2022/03/28 09:56:22;;;;;;;8.50;3.80;;;;;;;14.12;49.14;100319.20;130574;1265;97969;-73
2022/03/28 09:59:35;;;;;;;8.90;3.90;;;;;;;14.17;48.78;100320.61;130506;1265;97984;-72
2022/03/28 10:02:39;;;;;;;7.10;3.60;;;;;;;14.24;49.00;100311.05;130507;1265;97944;-74
2022/03/28 10:05:42;;;;;;;6.60;3.60;;;;;;;14.31;49.33;100310.94;130536;1265;97953;-72
2022/03/28 10:08:45;;;;;;;6.80;3.10;;;;;;;14.38;48.68;100305.00;130485;1265;98043;-72
2022/03/28 10:11:48;;;;;;;8.00;3.50;;;;;;;14.45;48.58;100309.65;130478;1265;98100;-73
2022/03/28 10:14:53;;;;;;;7.30;3.60;;;;;;;14.51;47.52;100304.14;130582;1265;97952;-73
2022/03/28 10:17:56;;;;;;;6.60;3.70;;;;;;;14.59;47.78;100298.11;130554;1265;98046;-73
2022/03/28 10:21:03;;;;;;;7.60;3.60;;;;;;;14.66;47.86;100288.95;130595;1265;98060;-73
2022/03/28 10:24:11;;;;;;;9.40;3.90;;;;;;;14.70;47.57;100287.50;130524;1265;97965;-73
2022/03/28 10:27:14;;;;;;;6.10;3.70;;;;;;;14.76;47.02;100288.84;130477;1265;99177;-73
2022/03/28 10:30:21;;;;;;;8.10;3.50;;;;;;;14.80;47.06;100281.49;130643;1265;98045;-73
2022/03/28 10:33:23;;;;;;;7.30;3.40;;;;;;;14.90;47.23;100276.94;130531;1265;99140;-73
2022/03/28 10:36:29;;;;;;;8.60;3.80;;;;;;;14.97;47.08;100275.40;130534;1265;98146;-73
2022/03/28 10:39:35;;;;;;;12.70;3.80;;;;;;;15.03;47.00;100270.27;130571;1265;97966;-73
2022/03/28 10:42:39;;;;;;;6.50;3.80;;;;;;;15.06;47.16;100263.63;130529;1265;98757;-72
2022/03/28 10:45:47;;;;;;;7.00;4.20;;;;;;;15.09;46.71;100260.88;130613;1265;98141;-73
2022/03/28 10:48:59;;;;;;;8.40;4.60;;;;;;;15.12;46.41;100249.10;130519;1265;97974;-74
2022/03/28 10:52:03;;;;;;;7.80;4.20;;;;;;;15.20;46.89;100247.27;130579;1265;97962;-72
2022/03/28 10:55:09;;;;;;;7.70;4.60;;;;;;;15.23;46.99;100237.15;130619;1265;97972;-73
2022/03/28 10:58:14;;;;;;;9.80;4.60;;;;;;;15.25;46.55;100233.50;130580;1265;98764;-73
2022/03/28 11:01:22;;;;;;;7.20;3.90;;;;;;;15.28;46.57;100233.50;130524;1265;99175;-73
2022/03/28 11:04:26;;;;;;;6.70;4.10;;;;;;;15.33;46.77;100228.07;130702;1265;98491;-73
2022/03/28 11:07:28;;;;;;;8.30;4.20;;;;;;;15.42;45.74;100226.20;130517;1265;98047;-73
2022/03/28 11:10:33;;;;;;;6.10;3.60;;;;;;;15.50;44.73;100218.71;130515;1265;98332;-73
2022/03/28 11:13:35;;;;;;;7.20;3.70;;;;;;;15.65;44.92;100212.83;130643;1265;99147;-72
2022/03/28 11:16:49;;;;;;;4.90;3.30;;;;;;;15.72;45.23;100208.17;130532;1265;98817;-72
2022/03/28 11:19:54;;;;;;;8.70;4.00;;;;;;;15.77;45.08;100204.55;130528;1265;99165;-72
2022/03/28 11:23:07;;;;;;;8.60;4.00;;;;;;;15.79;45.17;100197.27;130495;1265;99159;-72
2022/03/28 11:26:21;;;;;;;8.90;3.80;;;;;;;15.83;45.12;100203.34;130494;1265;99054;-72
2022/03/28 11:29:24;;;;;;;7.30;4.00;;;;;;;15.82;45.00;100196.79;130622;1265;99031;-73
2022/03/28 11:32:31;;;;;;;6.80;3.70;;;;;;;15.80;45.05;100182.29;130679;1265;97985;-72
2022/03/28 11:35:35;;;;;;;7.20;3.80;;;;;;;15.83;43.48;100179.42;130622;1265;99166;-73
2022/03/28 11:38:40;;;;;;;6.70;3.40;;;;;;;15.92;44.34;100168.23;130768;1265;99146;-72
2022/03/28 11:41:43;;;;;;;7.00;3.20;;;;;;;15.98;44.21;100165.85;130728;1265;98051;-74
2022/03/28 11:44:46;;;;;;;11.70;3.60;;;;;;;16.04;43.64;100161.69;130600;1265;97974;-73
2022/03/28 11:47:58;;;;;;;8.30;3.50;;;;;;;16.13;44.18;100152.73;130638;1264;97982;-73
2022/03/28 11:51:16;;;;;;;7.20;3.40;;;;;;;16.16;43.40;100144.64;130416;1265;97975;-73
2022/03/28 11:54:22;;;;;;;5.60;3.00;;;;;;;16.17;43.18;100131.27;130487;1265;98712;-74
2022/03/28 12:00:48;;;;;;;6.60;2.90;;;;;;;16.26;40.99;100129.52;130682;1265;97940;-74
2022/03/28 12:03:52;;;;;;;5.90;3.20;;;;;;;16.33;41.74;100124.77;130529;1265;97955;-73
2022/03/28 12:06:56;;;;;;;9.80;2.60;;;;;;;16.42;40.17;100122.73;130460;1265;98369;-72
2022/03/28 12:09:59;;;;;;;6.00;3.00;;;;;;;16.48;40.53;100111.72;130608;1265;98062;-72
2022/03/28 12:13:05;;;;;;;5.30;2.70;;;;;;;16.56;41.20;100108.55;130450;1265;98051;-73
2022/03/28 12:16:07;;;;;;;8.80;3.20;;;;;;;16.64;40.69;100103.98;130504;1265;98633;-73
2022/03/28 12:19:18;;;;;;;8.10;3.10;;;;;;;16.65;41.19;100097.77;130472;1265;97997;-73
2022/03/28 12:22:23;;;;;;;7.70;3.20;;;;;;;16.64;40.28;100091.49;129876;1265;1007477;-73
2022/03/28 12:25:28;;;;;;;7.70;3.50;;;;;;;16.62;39.36;100089.61;130595;1265;98122;-73
2022/03/28 12:28:34;;;;;;;8.50;3.10;;;;;;;16.68;39.86;100090.73;130686;1265;98718;-73
2022/03/28 12:31:37;;;;;;;5.50;3.10;;;;;;;16.71;40.42;100080.59;130518;1265;98044;-73
2022/03/28 12:34:40;;;;;;;6.00;2.80;;;;;;;16.77;39.59;100068.95;130644;1265;97977;-73
2022/03/28 12:37:43;;;;;;;6.60;2.80;;;;;;;16.77;40.67;100066.46;130566;1264;98427;-73
2022/03/28 12:40:50;;;;;;;7.20;3.10;;;;;;;16.77;40.34;100062.90;130549;1265;98801;-73
2022/03/28 12:43:53;;;;;;;9.40;2.40;;;;;;;16.83;38.13;100055.83;130486;1265;97982;-73
2022/03/28 12:47:04;;;;;;;7.80;2.20;;;;;;;16.94;39.08;100052.36;130459;1265;98743;-73
2022/03/28 12:50:10;;;;;;;5.70;2.50;;;;;;;17.00;38.44;100045.80;130489;1265;98086;-73
2022/03/28 12:53:15;;;;;;;7.80;2.60;;;;;;;17.01;37.42;100050.98;130480;1265;98766;-73
2022/03/28 12:56:19;;;;;;;9.00;3.00;;;;;;;17.06;36.53;100055.61;130614;1265;98046;-73
2022/03/28 12:59:25;;;;;;;7.10;2.40;;;;;;;17.09;37.71;100038.13;130486;1265;97958;-73
2022/03/28 13:02:28;;;;;;;8.60;2.40;;;;;;;17.12;37.28;100034.16;130528;1265;97971;-73
2022/03/28 13:05:31;;;;;;;8.40;3.80;;;;;;;17.15;35.92;100026.41;130468;1264;99597;-73
2022/03/28 13:08:36;;;;;;;10.80;7.20;;;;;;;17.16;35.23;100019.11;130471;1265;99139;-73
2022/03/28 13:11:40;;;;;;;11.00;4.00;;;;;;;17.23;36.25;100017.23;130586;1265;98033;-73
2022/03/28 13:14:48;;;;;;;69.30;17.70;;;;;;;17.30;36.64;100002.48;130556;1265;99268;-75
2022/03/28 13:18:08;;;;;;;8.70;5.20;;;;;;;17.34;36.91;100001.70;130613;1265;98476;-72
2022/03/28 13:21:14;;;;;;;9.30;3.60;;;;;;;17.36;35.38;99995.47;130661;1265;97999;-75
2022/03/28 13:24:20;;;;;;;6.50;2.70;;;;;;;17.38;34.45;99992.54;130548;1265;98088;-72
2022/03/28 13:30:55;;;;;;;5.80;2.70;;;;;;;17.44;34.05;99978.23;130542;1265;98721;-72
2022/03/28 13:33:58;;;;;;;5.30;2.20;;;;;;;17.45;34.48;99977.95;130492;1265;99024;-72
2022/03/28 13:37:06;;;;;;;16.20;7.70;;;;;;;17.50;33.90;99967.86;130436;1265;98564;-72
2022/03/28 13:40:11;;;;;;;14.80;6.20;;;;;;;17.53;34.44;99964.10;130555;1265;97955;-72
2022/03/28 13:43:14;;;;;;;43.10;21.50;;;;;;;17.54;35.21;99956.59;130585;1265;99050;-73
2022/03/28 13:46:17;;;;;;;77.80;40.10;;;;;;;17.57;34.79;99953.48;130543;1265;98110;-75
2022/03/28 13:49:20;;;;;;;12.40;5.70;;;;;;;17.60;34.78;99953.55;130724;1265;99166;-72
2022/03/28 13:52:22;;;;;;;10.80;5.00;;;;;;;17.57;35.45;99947.80;130635;1265;97968;-73
2022/03/28 13:55:25;;;;;;;85.10;25.60;;;;;;;17.53;34.52;99943.86;130439;1265;99159;-71
2022/03/28 13:58:29;;;;;;;79.80;32.00;;;;;;;17.52;34.45;99935.38;130439;1265;97968;-72
2022/03/28 14:01:32;;;;;;;18.30;7.00;;;;;;;17.52;34.63;99921.02;130616;1265;97984;-72
2022/03/28 14:04:34;;;;;;;16.60;8.10;;;;;;;17.50;34.24;99921.27;130449;1265;97988;-72
2022/03/28 14:07:37;;;;;;;35.60;18.60;;;;;;;17.51;35.19;99918.61;130458;1265;99143;-73
2022/03/28 14:10:40;;;;;;;13.70;8.00;;;;;;;17.50;34.22;99924.92;130478;1264;97978;-73